createdAt,value
2022-11-30T00:00:27.752Z,990.86
2022-11-30T00:01:27.736Z,990.86
2022-11-30T00:02:27.843Z,990.84
2022-11-30T00:03:27.738Z,990.82
2022-11-30T00:04:27.688Z,990.82
2022-11-30T00:05:27.675Z,990.79
2022-11-30T00:06:27.691Z,990.86
2022-11-30T00:07:27.754Z,990.83
2022-11-30T00:08:27.626Z,990.81
2022-11-30T00:09:27.609Z,990.76
2022-11-30T00:10:27.626Z,990.76
2022-11-30T00:11:27.601Z,990.79
2022-11-30T00:12:27.644Z,990.81
2022-11-30T00:13:27.569Z,990.76
2022-11-30T00:14:27.555Z,990.78
2022-11-30T00:15:27.542Z,990.78
2022-11-30T00:16:27.693Z,990.83
2022-11-30T00:17:27.540Z,990.76
2022-11-30T00:18:27.512Z,990.78
2022-11-30T00:19:27.529Z,990.81
2022-11-30T00:20:27.501Z,990.79
2022-11-30T00:21:27.499Z,990.85
2022-11-30T00:22:27.535Z,990.79
2022-11-30T00:23:27.462Z,990.77
2022-11-30T00:24:27.454Z,990.80
2022-11-30T00:25:27.455Z,990.77
2022-11-30T00:26:27.432Z,990.78
2022-11-30T00:27:27.433Z,990.78
2022-11-30T00:28:27.439Z,990.75
2022-11-30T00:29:27.407Z,990.72
2022-11-30T00:30:27.445Z,990.76
2022-11-30T00:31:27.427Z,990.72
2022-11-30T00:32:27.368Z,990.77
2022-11-30T00:33:27.388Z,990.74
2022-11-30T00:34:27.343Z,990.80
2022-11-30T00:35:27.342Z,990.80
2022-11-30T00:36:27.346Z,990.83
2022-11-30T00:37:27.357Z,990.80
2022-11-30T00:38:27.337Z,990.81
2022-11-30T00:39:31.047Z,990.77
2022-11-30T00:40:28.280Z,990.76
2022-11-30T00:41:27.294Z,990.73
2022-11-30T00:42:27.261Z,990.73
2022-11-30T00:43:27.258Z,990.73
2022-11-30T00:44:27.236Z,990.76
2022-11-30T00:45:27.263Z,990.75
2022-11-30T00:46:27.289Z,990.71
2022-11-30T00:47:27.221Z,990.76
2022-11-30T00:48:27.187Z,990.73
2022-11-30T00:49:27.196Z,990.75
2022-11-30T00:50:27.181Z,990.72
2022-11-30T00:51:27.172Z,990.80
2022-11-30T00:52:27.213Z,990.77
2022-11-30T00:53:27.200Z,990.75
2022-11-30T00:54:27.136Z,990.82
2022-11-30T00:55:27.122Z,990.85
2022-11-30T00:56:27.102Z,990.87
2022-11-30T00:57:27.128Z,990.82
2022-11-30T00:58:27.081Z,990.81
2022-11-30T00:59:27.076Z,990.86
2022-11-30T01:00:27.096Z,990.83
2022-11-30T01:01:27.147Z,990.84
2022-11-30T01:02:27.156Z,990.90
2022-11-30T01:03:27.041Z,990.86
2022-11-30T01:04:27.144Z,990.89
2022-11-30T01:05:27.035Z,990.91
2022-11-30T01:06:27.016Z,990.87
2022-11-30T01:07:27.053Z,990.88
2022-11-30T01:08:27.608Z,990.84
2022-11-30T01:09:26.992Z,990.85
2022-11-30T01:10:26.966Z,990.83
2022-11-30T01:11:26.959Z,990.85
2022-11-30T01:12:26.968Z,990.83
2022-11-30T01:13:26.939Z,990.87
2022-11-30T01:14:26.910Z,990.85
2022-11-30T01:15:27.017Z,990.86
2022-11-30T01:16:26.939Z,990.84
2022-11-30T01:17:26.939Z,990.86
2022-11-30T01:18:26.867Z,990.85
2022-11-30T01:19:26.859Z,990.83
2022-11-30T01:20:26.932Z,990.86
2022-11-30T01:21:26.845Z,990.87
2022-11-30T01:22:26.845Z,990.94
2022-11-30T01:23:26.901Z,990.90
2022-11-30T01:24:26.822Z,990.89
2022-11-30T01:25:26.817Z,990.92
2022-11-30T01:26:26.783Z,990.92
2022-11-30T01:27:27.777Z,990.94
2022-11-30T01:28:26.777Z,991.01
2022-11-30T01:29:26.768Z,990.92
2022-11-30T01:30:26.740Z,990.90
2022-11-30T01:31:26.787Z,990.94
2022-11-30T01:32:26.772Z,990.89
2022-11-30T01:33:26.714Z,990.91
2022-11-30T01:34:26.735Z,990.95
2022-11-30T01:35:26.690Z,990.94
2022-11-30T01:36:26.682Z,990.91
2022-11-30T01:37:26.688Z,990.91
2022-11-30T01:38:26.685Z,990.88
2022-11-30T01:39:26.645Z,990.87
2022-11-30T01:40:26.673Z,990.91
2022-11-30T01:41:26.639Z,990.90
2022-11-30T01:42:26.638Z,990.94
2022-11-30T01:43:26.609Z,990.93
2022-11-30T01:44:26.611Z,990.88
2022-11-30T01:45:26.747Z,990.94
2022-11-30T01:46:26.629Z,990.83
2022-11-30T01:47:26.926Z,990.82
2022-11-30T01:48:26.548Z,990.83
2022-11-30T01:49:26.538Z,990.85
2022-11-30T01:50:26.550Z,990.85
2022-11-30T01:51:26.571Z,990.88
2022-11-30T01:52:26.509Z,990.87
2022-11-30T01:53:26.501Z,990.89
2022-11-30T01:54:26.484Z,990.89
2022-11-30T01:55:26.510Z,990.88
2022-11-30T01:56:26.597Z,990.89
2022-11-30T01:57:26.512Z,990.86
2022-11-30T01:58:26.471Z,990.86
2022-11-30T01:59:26.435Z,990.89
2022-11-30T02:00:26.448Z,990.92
2022-11-30T02:01:26.480Z,990.89
2022-11-30T02:02:26.677Z,990.87
2022-11-30T02:03:26.392Z,990.85
2022-11-30T02:04:26.380Z,990.92
2022-11-30T02:05:26.369Z,990.92
2022-11-30T02:06:26.411Z,990.94
2022-11-30T02:07:26.685Z,990.94
2022-11-30T02:08:26.552Z,990.90
2022-11-30T02:09:26.339Z,990.88
2022-11-30T02:10:26.320Z,990.90
2022-11-30T02:11:26.306Z,990.90
2022-11-30T02:12:26.338Z,990.91
2022-11-30T02:13:26.431Z,990.90
2022-11-30T02:14:26.335Z,990.98
2022-11-30T02:15:26.303Z,990.97
2022-11-30T02:16:26.264Z,990.99
2022-11-30T02:17:26.266Z,991.01
2022-11-30T02:18:26.268Z,990.90
2022-11-30T02:19:26.246Z,990.92
2022-11-30T02:20:26.209Z,990.93
2022-11-30T02:21:26.203Z,990.92
2022-11-30T02:22:26.221Z,990.95
2022-11-30T02:23:26.241Z,990.91
2022-11-30T02:24:26.183Z,990.91
2022-11-30T02:25:26.155Z,990.94
2022-11-30T02:26:26.156Z,990.96
2022-11-30T02:27:26.218Z,990.91
2022-11-30T02:28:27.163Z,990.89
2022-11-30T02:29:26.146Z,990.94
2022-11-30T02:30:26.110Z,990.91
2022-11-30T02:31:26.136Z,990.88
2022-11-30T02:32:26.136Z,990.92
2022-11-30T02:33:26.080Z,990.93
2022-11-30T02:34:26.057Z,990.91
2022-11-30T02:35:26.082Z,990.83
2022-11-30T02:36:26.045Z,990.87
2022-11-30T02:37:26.069Z,990.88
2022-11-30T02:38:26.023Z,990.89
2022-11-30T02:39:26.035Z,990.89
2022-11-30T02:40:26.003Z,990.85
2022-11-30T02:41:25.990Z,990.84
2022-11-30T02:42:26.002Z,990.85
2022-11-30T02:43:25.982Z,990.91
2022-11-30T02:44:26.050Z,990.91
2022-11-30T02:45:25.964Z,990.88
2022-11-30T02:46:26.109Z,990.96
2022-11-30T02:47:26.950Z,990.92
2022-11-30T02:48:25.974Z,990.91
2022-11-30T02:49:25.939Z,990.86
2022-11-30T02:50:26.496Z,990.91
2022-11-30T02:51:25.896Z,990.89
2022-11-30T02:52:25.868Z,990.89
2022-11-30T02:53:25.854Z,990.90
2022-11-30T02:54:25.870Z,990.87
2022-11-30T02:55:25.873Z,990.86
2022-11-30T02:56:25.887Z,990.86
2022-11-30T02:57:25.865Z,990.85
2022-11-30T02:58:25.813Z,990.83
2022-11-30T02:59:25.821Z,990.92
2022-11-30T03:00:25.802Z,990.89
2022-11-30T03:01:25.860Z,990.94
2022-11-30T03:02:25.841Z,990.93
2022-11-30T03:03:25.761Z,990.96
2022-11-30T03:04:25.749Z,990.98
2022-11-30T03:05:25.727Z,990.99
2022-11-30T03:06:25.731Z,990.93
2022-11-30T03:07:25.799Z,990.99
2022-11-30T03:08:25.753Z,990.98
2022-11-30T03:09:25.690Z,991.02
2022-11-30T03:10:25.680Z,990.97
2022-11-30T03:11:25.663Z,991.02
2022-11-30T03:12:25.668Z,990.96
2022-11-30T03:13:25.657Z,991.00
2022-11-30T03:14:25.717Z,991.02
2022-11-30T03:15:25.627Z,991.04
2022-11-30T03:16:25.636Z,991.00
2022-11-30T03:17:25.634Z,991.02
2022-11-30T03:18:25.595Z,991.00
2022-11-30T03:19:25.582Z,991.00
2022-11-30T03:20:25.626Z,991.01
2022-11-30T03:21:25.571Z,991.00
2022-11-30T03:22:25.577Z,991.11
2022-11-30T03:23:25.549Z,991.03
2022-11-30T03:24:25.540Z,991.07
2022-11-30T03:25:25.555Z,991.08
2022-11-30T03:26:25.534Z,991.11
2022-11-30T03:27:25.501Z,991.09
2022-11-30T03:28:25.487Z,991.08
2022-11-30T03:29:25.476Z,991.12
2022-11-30T03:30:25.467Z,991.05
2022-11-30T03:31:25.501Z,991.12
2022-11-30T03:32:25.482Z,991.14
2022-11-30T03:33:25.450Z,991.09
2022-11-30T03:34:25.440Z,991.13
2022-11-30T03:35:25.417Z,991.05
2022-11-30T03:36:25.448Z,991.10
2022-11-30T03:37:25.405Z,991.06
2022-11-30T03:38:25.382Z,991.11
2022-11-30T03:39:25.369Z,991.08
2022-11-30T03:40:25.377Z,991.07
2022-11-30T03:41:25.365Z,991.12
2022-11-30T03:42:25.394Z,991.07
2022-11-30T03:43:25.335Z,991.10
2022-11-30T03:44:25.314Z,991.08
2022-11-30T03:45:25.307Z,991.07
2022-11-30T03:46:25.368Z,991.13
2022-11-30T03:47:25.350Z,991.14
2022-11-30T03:48:25.281Z,991.08
2022-11-30T03:49:25.285Z,991.07
2022-11-30T03:50:25.275Z,991.08
2022-11-30T03:51:25.253Z,991.09
2022-11-30T03:52:25.264Z,991.03
2022-11-30T03:53:25.257Z,991.04
2022-11-30T03:54:25.212Z,991.10
2022-11-30T03:55:25.198Z,991.10
2022-11-30T03:56:25.193Z,991.06
2022-11-30T03:57:25.193Z,991.07
2022-11-30T03:58:25.168Z,991.16
2022-11-30T03:59:25.151Z,991.09
2022-11-30T04:00:25.163Z,991.17
2022-11-30T04:01:25.269Z,991.13
2022-11-30T04:02:25.336Z,991.10
2022-11-30T04:03:25.120Z,991.10
2022-11-30T04:04:25.124Z,991.13
2022-11-30T04:05:25.115Z,991.11
2022-11-30T04:06:25.081Z,991.17
2022-11-30T04:07:25.149Z,991.18
2022-11-30T04:08:25.077Z,991.10
2022-11-30T04:09:25.046Z,991.10
2022-11-30T04:10:25.044Z,991.16
2022-11-30T04:11:25.026Z,991.14
2022-11-30T04:12:25.032Z,991.19
2022-11-30T04:13:25.004Z,991.20
2022-11-30T04:14:25.015Z,991.21
2022-11-30T04:15:24.980Z,991.19
2022-11-30T04:16:25.040Z,991.22
2022-11-30T04:17:24.992Z,991.23
2022-11-30T04:18:24.950Z,991.23
2022-11-30T04:19:24.978Z,991.24
2022-11-30T04:20:24.933Z,991.23
2022-11-30T04:21:24.940Z,991.17
2022-11-30T04:22:24.932Z,991.18
2022-11-30T04:23:24.935Z,991.17
2022-11-30T04:24:24.884Z,991.15
2022-11-30T04:25:24.876Z,991.12
2022-11-30T04:26:24.882Z,991.07
2022-11-30T04:27:24.869Z,991.16
2022-11-30T04:28:24.857Z,991.12
2022-11-30T04:29:24.829Z,991.13
2022-11-30T04:30:24.825Z,991.17
2022-11-30T04:31:24.845Z,991.12
2022-11-30T04:32:24.828Z,991.12
2022-11-30T04:33:24.799Z,991.10
2022-11-30T04:34:24.822Z,991.10
2022-11-30T04:35:24.795Z,991.06
2022-11-30T04:36:24.760Z,991.11
2022-11-30T04:37:24.897Z,991.10
2022-11-30T04:38:24.749Z,991.11
2022-11-30T04:39:24.771Z,991.11
2022-11-30T04:40:24.736Z,991.14
2022-11-30T04:41:24.705Z,991.13
2022-11-30T04:42:24.726Z,991.17
2022-11-30T04:43:24.755Z,991.21
2022-11-30T04:44:24.675Z,991.22
2022-11-30T04:45:24.701Z,991.23
2022-11-30T04:46:24.805Z,991.22
2022-11-30T04:47:24.669Z,991.24
2022-11-30T04:48:24.658Z,991.22
2022-11-30T04:49:24.617Z,991.26
2022-11-30T04:50:24.615Z,991.27
2022-11-30T04:51:24.612Z,991.24
2022-11-30T04:52:24.608Z,991.27
2022-11-30T04:53:24.595Z,991.25
2022-11-30T04:54:24.609Z,991.25
2022-11-30T04:55:24.553Z,991.26
2022-11-30T04:56:24.548Z,991.26
2022-11-30T04:57:24.579Z,991.28
2022-11-30T04:58:24.522Z,991.31
2022-11-30T04:59:24.545Z,991.31
2022-11-30T05:00:24.509Z,991.30
2022-11-30T05:01:24.539Z,991.28
2022-11-30T05:02:24.581Z,991.32
2022-11-30T05:03:24.473Z,991.28
2022-11-30T05:04:24.513Z,991.30
2022-11-30T05:05:24.462Z,991.23
2022-11-30T05:06:24.437Z,991.30
2022-11-30T05:07:24.503Z,991.28
2022-11-30T05:08:24.433Z,991.32
2022-11-30T05:09:24.429Z,991.28
2022-11-30T05:10:24.404Z,991.31
2022-11-30T05:11:24.387Z,991.30
2022-11-30T05:12:24.396Z,991.33
2022-11-30T05:13:24.376Z,991.30
2022-11-30T05:14:24.349Z,991.30
2022-11-30T05:15:24.385Z,991.31
2022-11-30T05:16:24.427Z,991.31
2022-11-30T05:17:24.343Z,991.33
2022-11-30T05:18:24.324Z,991.31
2022-11-30T05:19:24.298Z,991.32
2022-11-30T05:20:24.317Z,991.31
2022-11-30T05:21:24.278Z,991.33
2022-11-30T05:22:24.304Z,991.37
2022-11-30T05:23:24.273Z,991.34
2022-11-30T05:24:24.282Z,991.34
2022-11-30T05:25:24.251Z,991.35
2022-11-30T05:26:24.247Z,991.32
2022-11-30T05:27:24.241Z,991.32
2022-11-30T05:28:24.211Z,991.36
2022-11-30T05:29:24.239Z,991.44
2022-11-30T05:30:24.189Z,991.32
2022-11-30T05:31:24.274Z,991.33
2022-11-30T05:32:24.184Z,991.42
2022-11-30T05:33:24.163Z,991.29
2022-11-30T05:34:24.156Z,991.32
2022-11-30T05:35:24.129Z,991.34
2022-11-30T05:36:24.163Z,991.30
2022-11-30T05:37:24.121Z,991.34
2022-11-30T05:38:24.101Z,991.30
2022-11-30T05:39:24.127Z,991.35
2022-11-30T05:40:24.094Z,991.34
2022-11-30T05:41:24.089Z,991.33
2022-11-30T05:42:24.053Z,991.33
2022-11-30T05:43:24.065Z,991.35
2022-11-30T05:44:24.065Z,991.32
2022-11-30T05:45:24.065Z,991.30
2022-11-30T05:46:24.064Z,991.27
2022-11-30T05:47:23.996Z,991.27
2022-11-30T05:48:24.053Z,991.27
2022-11-30T05:49:23.980Z,991.25
2022-11-30T05:50:23.986Z,991.29
2022-11-30T05:51:23.955Z,991.29
2022-11-30T05:52:23.970Z,991.27
2022-11-30T05:53:23.960Z,991.28
2022-11-30T05:54:23.922Z,991.25
2022-11-30T05:55:23.917Z,991.25
2022-11-30T05:56:23.913Z,991.29
2022-11-30T05:57:23.969Z,991.32
2022-11-30T05:58:23.894Z,991.31
2022-11-30T05:59:23.878Z,991.31
2022-11-30T06:00:23.876Z,991.33
2022-11-30T06:01:23.867Z,991.35
2022-11-30T06:02:28.178Z,991.33
2022-11-30T06:03:23.961Z,991.36
2022-11-30T06:04:23.828Z,991.32
2022-11-30T06:05:23.807Z,991.33
2022-11-30T06:06:23.803Z,991.34
2022-11-30T06:07:23.902Z,991.40
2022-11-30T06:08:23.796Z,991.34
2022-11-30T06:09:23.786Z,991.31
2022-11-30T06:10:23.754Z,991.35
2022-11-30T06:11:23.742Z,991.30
2022-11-30T06:12:23.799Z,991.37
2022-11-30T06:13:28.704Z,991.30
2022-11-30T06:14:24.733Z,991.27
2022-11-30T06:15:23.723Z,991.32
2022-11-30T06:16:23.748Z,991.27
2022-11-30T06:17:23.689Z,991.31
2022-11-30T06:18:23.664Z,991.31
2022-11-30T06:19:23.662Z,991.33
2022-11-30T06:20:23.664Z,991.32
2022-11-30T06:21:24.837Z,991.26
2022-11-30T06:22:23.645Z,991.36
2022-11-30T06:23:23.618Z,991.32
2022-11-30T06:24:23.604Z,991.32
2022-11-30T06:25:23.614Z,991.28
2022-11-30T06:26:23.582Z,991.27
2022-11-30T06:27:23.583Z,991.30
2022-11-30T06:28:23.564Z,991.30
2022-11-30T06:29:23.604Z,991.31
2022-11-30T06:30:23.546Z,991.28
2022-11-30T06:31:23.559Z,991.25
2022-11-30T06:32:23.554Z,991.27
2022-11-30T06:33:23.508Z,991.23
2022-11-30T06:34:23.497Z,991.24
2022-11-30T06:35:23.487Z,991.26
2022-11-30T06:36:23.480Z,991.26
2022-11-30T06:37:23.510Z,991.26
2022-11-30T06:38:23.473Z,991.24
2022-11-30T06:39:50.163Z,991.28
2022-11-30T06:40:24.471Z,991.23
2022-11-30T06:41:23.451Z,991.24
2022-11-30T06:42:23.472Z,991.24
2022-11-30T06:43:23.403Z,991.26
2022-11-30T06:44:23.388Z,991.27
2022-11-30T06:45:23.427Z,991.32
2022-11-30T06:46:23.374Z,991.32
2022-11-30T06:47:23.414Z,991.26
2022-11-30T06:48:23.367Z,991.34
2022-11-30T06:49:23.362Z,991.31
2022-11-30T06:50:23.491Z,991.29
2022-11-30T06:51:23.315Z,991.29
2022-11-30T06:52:23.332Z,991.31
2022-11-30T06:53:23.305Z,991.31
2022-11-30T06:54:23.279Z,991.33
2022-11-30T06:55:23.318Z,991.32
2022-11-30T06:56:23.311Z,991.32
2022-11-30T06:57:23.282Z,991.34
2022-11-30T06:58:23.241Z,991.35
2022-11-30T06:59:23.264Z,991.37
2022-11-30T07:00:23.248Z,991.40
2022-11-30T07:01:23.325Z,991.36
2022-11-30T07:02:23.237Z,991.32
2022-11-30T07:03:23.332Z,991.43
2022-11-30T07:04:23.228Z,991.37
2022-11-30T07:05:23.177Z,991.31
2022-11-30T07:06:23.185Z,991.38
2022-11-30T07:07:23.237Z,991.37
2022-11-30T07:08:23.260Z,991.32
2022-11-30T07:09:23.207Z,991.29
2022-11-30T07:10:23.134Z,991.30
2022-11-30T07:11:23.118Z,991.35
2022-11-30T07:12:23.108Z,991.37
2022-11-30T07:13:23.124Z,991.36
2022-11-30T07:14:23.077Z,991.35
2022-11-30T07:15:23.093Z,991.39
2022-11-30T07:16:23.148Z,991.40
2022-11-30T07:17:23.104Z,991.41
2022-11-30T07:18:27.068Z,991.40
2022-11-30T07:19:24.021Z,991.40
2022-11-30T07:20:23.032Z,991.39
2022-11-30T07:21:23.006Z,991.35
2022-11-30T07:22:23.011Z,991.39
2022-11-30T07:23:23.010Z,991.41
2022-11-30T07:24:22.966Z,991.46
2022-11-30T07:25:23.004Z,991.50
2022-11-30T07:26:22.942Z,991.52
2022-11-30T07:27:22.971Z,991.44
2022-11-30T07:28:22.921Z,991.49
2022-11-30T07:29:22.971Z,991.43
2022-11-30T07:30:22.909Z,991.48
2022-11-30T07:31:22.983Z,991.42
2022-11-30T07:32:22.927Z,991.47
2022-11-30T07:33:22.910Z,991.45
2022-11-30T07:34:22.874Z,991.49
2022-11-30T07:35:22.904Z,991.47
2022-11-30T07:36:22.836Z,991.48
2022-11-30T07:37:22.860Z,991.43
2022-11-30T07:38:22.929Z,991.42
2022-11-30T07:39:22.842Z,991.48
2022-11-30T07:40:22.860Z,991.37
2022-11-30T07:41:22.829Z,991.44
2022-11-30T07:42:22.794Z,991.43
2022-11-30T07:43:22.761Z,991.50
2022-11-30T07:44:22.784Z,991.46
2022-11-30T07:45:22.758Z,991.50
2022-11-30T07:46:22.834Z,991.46
2022-11-30T07:47:22.738Z,991.47
2022-11-30T07:48:22.728Z,991.43
2022-11-30T07:49:22.721Z,991.46
2022-11-30T07:50:22.687Z,991.43
2022-11-30T07:51:22.686Z,991.47
2022-11-30T07:52:22.701Z,991.51
2022-11-30T07:53:22.655Z,991.46
2022-11-30T07:54:22.662Z,991.48
2022-11-30T07:55:22.691Z,991.51
2022-11-30T07:56:22.662Z,991.45
2022-11-30T07:57:22.647Z,991.50
2022-11-30T07:58:22.624Z,991.45
2022-11-30T07:59:22.591Z,991.51
2022-11-30T08:00:22.595Z,991.44
2022-11-30T08:01:22.726Z,991.54
2022-11-30T08:02:22.777Z,991.54
2022-11-30T08:03:22.565Z,991.50
2022-11-30T08:04:22.663Z,991.51
2022-11-30T08:05:22.553Z,991.53
2022-11-30T08:06:22.517Z,991.46
2022-11-30T08:07:22.565Z,991.50
2022-11-30T08:08:22.495Z,991.49
2022-11-30T08:09:22.515Z,991.50
2022-11-30T08:10:22.551Z,991.48
2022-11-30T08:11:22.483Z,991.53
2022-11-30T08:12:22.478Z,991.52
2022-11-30T08:13:22.443Z,991.51
2022-11-30T08:14:22.447Z,991.58
2022-11-30T08:15:26.128Z,991.48
2022-11-30T08:16:23.645Z,991.49
2022-11-30T08:17:22.414Z,991.52
2022-11-30T08:18:22.434Z,991.50
2022-11-30T08:19:22.406Z,991.55
2022-11-30T08:20:22.372Z,991.55
2022-11-30T08:21:22.383Z,991.53
2022-11-30T08:22:22.406Z,991.49
2022-11-30T08:23:22.336Z,991.48
2022-11-30T08:24:22.384Z,991.49
2022-11-30T08:25:22.319Z,991.54
2022-11-30T08:26:22.336Z,991.58
2022-11-30T08:27:22.302Z,991.55
2022-11-30T08:28:22.297Z,991.59
2022-11-30T08:29:22.300Z,991.66
2022-11-30T08:30:26.440Z,991.61
2022-11-30T08:31:23.669Z,991.65
2022-11-30T08:32:22.256Z,991.66
2022-11-30T08:33:22.259Z,991.68
2022-11-30T08:34:22.332Z,991.70
2022-11-30T08:35:22.221Z,991.68
2022-11-30T08:36:22.197Z,991.61
2022-11-30T08:37:22.225Z,991.65
2022-11-30T08:38:22.200Z,991.71
2022-11-30T08:39:22.174Z,991.60
2022-11-30T08:40:22.160Z,991.58
2022-11-30T08:41:22.166Z,991.62
2022-11-30T08:42:22.203Z,991.57
2022-11-30T08:43:22.136Z,991.58
2022-11-30T08:44:22.114Z,991.56
2022-11-30T08:45:22.103Z,991.64
2022-11-30T08:47:23.129Z,991.64
2022-11-30T08:48:22.088Z,991.60
2022-11-30T08:49:23.893Z,991.65
2022-11-30T08:50:22.099Z,991.61
2022-11-30T08:51:22.048Z,991.63
2022-11-30T08:52:22.051Z,991.68
2022-11-30T08:53:22.036Z,991.62
2022-11-30T08:54:22.019Z,991.67
2022-11-30T08:55:22.015Z,991.63
2022-11-30T08:56:22.021Z,991.62
2022-11-30T08:57:22.004Z,991.61
2022-11-30T08:58:21.964Z,991.65
2022-11-30T08:59:21.994Z,991.65
2022-11-30T09:00:21.940Z,991.67
2022-11-30T09:01:21.954Z,991.69
2022-11-30T09:02:22.011Z,991.64
2022-11-30T09:03:21.912Z,991.63
2022-11-30T09:04:21.915Z,991.64
2022-11-30T09:05:21.886Z,991.67
2022-11-30T09:06:21.873Z,991.75
2022-11-30T09:07:21.965Z,991.68
2022-11-30T09:08:21.874Z,991.72
2022-11-30T09:09:21.875Z,991.71
2022-11-30T09:10:21.955Z,991.67
2022-11-30T09:11:21.822Z,991.70
2022-11-30T09:12:22.006Z,991.73
2022-11-30T09:13:21.814Z,991.75
2022-11-30T09:14:21.917Z,991.67
2022-11-30T09:15:21.786Z,991.70
2022-11-30T09:16:21.823Z,991.71
2022-11-30T09:17:21.793Z,991.69
2022-11-30T09:18:21.781Z,991.73
2022-11-30T09:19:21.764Z,991.72
2022-11-30T09:20:21.720Z,991.74
2022-11-30T09:21:21.711Z,991.73
2022-11-30T09:22:21.813Z,991.77
2022-11-30T09:23:21.703Z,991.76
2022-11-30T09:24:21.700Z,991.79
2022-11-30T09:25:21.693Z,991.79
2022-11-30T09:26:21.678Z,991.79
2022-11-30T09:27:21.702Z,991.84
2022-11-30T09:28:21.681Z,991.84
2022-11-30T09:29:21.646Z,991.80
2022-11-30T09:30:21.625Z,991.78
2022-11-30T09:31:21.617Z,991.81
2022-11-30T09:32:21.641Z,991.84
2022-11-30T09:33:21.586Z,991.82
2022-11-30T09:34:21.624Z,991.82
2022-11-30T09:35:21.559Z,991.81
2022-11-30T09:36:21.548Z,991.74
2022-11-30T09:37:21.589Z,991.81
2022-11-30T09:38:21.572Z,991.79
2022-11-30T09:39:21.536Z,991.77
2022-11-30T09:40:21.539Z,991.83
2022-11-30T09:41:21.583Z,991.79
2022-11-30T09:42:21.503Z,991.82
2022-11-30T09:43:21.546Z,991.72
2022-11-30T09:44:21.481Z,991.76
2022-11-30T09:45:21.503Z,991.82
2022-11-30T09:46:21.475Z,991.77
2022-11-30T09:47:21.668Z,991.74
2022-11-30T09:48:21.424Z,991.73
2022-11-30T09:49:21.472Z,991.77
2022-11-30T09:50:21.856Z,991.77
2022-11-30T09:51:21.389Z,991.75
2022-11-30T09:52:21.392Z,991.77
2022-11-30T09:53:27.655Z,991.78
2022-11-30T09:54:22.368Z,991.79
2022-11-30T09:55:21.350Z,991.67
2022-11-30T09:56:21.361Z,991.65
2022-11-30T09:57:21.366Z,991.76
2022-11-30T09:58:21.450Z,991.74
2022-11-30T09:59:21.490Z,991.76
2022-11-30T10:00:21.292Z,991.71
2022-11-30T10:01:21.915Z,991.71
2022-11-30T10:02:21.472Z,991.70
2022-11-30T10:03:21.442Z,991.67
2022-11-30T10:04:21.254Z,991.64
2022-11-30T10:05:21.237Z,991.68
2022-11-30T10:06:21.242Z,991.64
2022-11-30T10:07:21.397Z,991.69
2022-11-30T10:08:21.495Z,991.66
2022-11-30T10:09:21.217Z,991.69
2022-11-30T10:10:32.211Z,991.68
2022-11-30T10:11:22.175Z,991.69
2022-11-30T10:12:21.811Z,991.63
2022-11-30T10:13:21.223Z,991.64
2022-11-30T10:14:21.179Z,991.64
2022-11-30T10:15:21.214Z,991.62
2022-11-30T10:16:22.122Z,991.59
2022-11-30T10:17:21.678Z,991.64
2022-11-30T10:18:21.107Z,991.59
2022-11-30T10:19:21.130Z,991.60
2022-11-30T10:20:21.077Z,991.59
2022-11-30T10:21:21.065Z,991.63
2022-11-30T10:22:21.091Z,991.66
2022-11-30T10:23:21.051Z,991.66
2022-11-30T10:24:21.064Z,991.65
2022-11-30T10:25:21.599Z,991.69
2022-11-30T10:26:21.826Z,991.68
2022-11-30T10:27:21.056Z,991.68
2022-11-30T10:28:48.740Z,991.65
2022-11-30T10:29:22.032Z,991.65
2022-11-30T10:30:20.976Z,991.64
2022-11-30T10:31:21.073Z,991.64
2022-11-30T10:32:21.043Z,991.63
2022-11-30T10:33:20.964Z,991.58
2022-11-30T10:34:21.639Z,991.66
2022-11-30T10:35:21.370Z,991.60
2022-11-30T10:36:20.907Z,991.57
2022-11-30T10:37:20.922Z,991.54
2022-11-30T10:38:20.900Z,991.55
2022-11-30T10:39:20.887Z,991.52
2022-11-30T10:40:20.897Z,991.53
2022-11-30T10:41:20.888Z,991.48
2022-11-30T10:42:20.891Z,991.54
2022-11-30T10:43:21.712Z,991.42
2022-11-30T10:44:21.123Z,991.48
2022-11-30T10:45:20.943Z,991.45
2022-11-30T10:46:20.927Z,991.42
2022-11-30T10:47:20.821Z,991.48
2022-11-30T10:48:20.864Z,991.45
2022-11-30T10:49:20.803Z,991.45
2022-11-30T10:50:20.766Z,991.47
2022-11-30T10:51:20.835Z,991.45
2022-11-30T10:52:23.568Z,991.44
2022-11-30T10:53:20.739Z,991.47
2022-11-30T10:54:20.749Z,991.40
2022-11-30T10:55:20.706Z,991.41
2022-11-30T10:56:20.698Z,991.44
2022-11-30T10:57:20.772Z,991.34
2022-11-30T10:58:20.746Z,991.35
2022-11-30T10:59:20.714Z,991.36
2022-11-30T11:00:20.720Z,991.37
2022-11-30T11:01:25.679Z,991.39
2022-11-30T11:02:20.783Z,991.31
2022-11-30T11:03:20.618Z,991.31
2022-11-30T11:04:20.682Z,991.37
2022-11-30T11:05:20.712Z,991.24
2022-11-30T11:06:20.629Z,991.35
2022-11-30T11:07:20.809Z,991.28
2022-11-30T11:08:20.677Z,991.31
2022-11-30T11:09:20.619Z,991.33
2022-11-30T11:10:27.038Z,991.35
2022-11-30T11:11:20.589Z,991.29
2022-11-30T11:12:20.651Z,991.33
2022-11-30T11:13:20.509Z,991.32
2022-11-30T11:14:20.508Z,991.35
2022-11-30T11:15:20.499Z,991.30
2022-11-30T11:16:20.574Z,991.29
2022-11-30T11:17:20.568Z,991.26
2022-11-30T11:18:22.179Z,991.29
2022-11-30T11:19:20.650Z,991.25
2022-11-30T11:20:20.462Z,991.31
2022-11-30T11:21:20.476Z,991.29
2022-11-30T11:22:20.482Z,991.28
2022-11-30T11:23:20.458Z,991.26
2022-11-30T11:24:20.392Z,991.28
2022-11-30T11:25:20.413Z,991.26
2022-11-30T11:26:20.401Z,991.27
2022-11-30T11:27:20.633Z,991.32
2022-11-30T11:28:20.498Z,991.22
2022-11-30T11:29:43.116Z,991.25
2022-11-30T11:30:20.414Z,991.27
2022-11-30T11:31:20.471Z,991.24
2022-11-30T11:32:20.332Z,991.22
2022-11-30T11:33:20.339Z,991.22
2022-11-30T11:34:20.289Z,991.25
2022-11-30T11:35:20.270Z,991.20
2022-11-30T11:36:21.200Z,991.23
2022-11-30T11:37:21.860Z,991.17
2022-11-30T11:38:20.286Z,991.21
2022-11-30T11:39:20.337Z,991.13
2022-11-30T11:40:20.259Z,991.22
2022-11-30T11:41:20.250Z,991.18
2022-11-30T11:42:22.185Z,991.16
2022-11-30T11:43:20.231Z,991.21
2022-11-30T11:44:20.202Z,991.14
2022-11-30T11:45:22.085Z,991.19
2022-11-30T11:46:20.391Z,991.14
2022-11-30T11:47:20.238Z,991.15
2022-11-30T11:48:23.576Z,991.10
2022-11-30T11:49:21.141Z,991.11
2022-11-30T11:50:31.689Z,991.08
2022-11-30T11:51:21.180Z,991.09
2022-11-30T11:52:20.216Z,991.03
2022-11-30T11:53:20.177Z,991.09
2022-11-30T11:54:20.690Z,991.04
2022-11-30T11:55:20.163Z,991.05
2022-11-30T11:56:20.177Z,990.98
2022-11-30T11:57:20.121Z,991.11
2022-11-30T11:58:20.059Z,991.05
2022-11-30T11:59:20.037Z,991.01
2022-11-30T12:00:20.034Z,991.07
2022-11-30T12:01:41.678Z,991.11
2022-11-30T12:02:21.148Z,991.03
2022-11-30T12:03:21.630Z,991.09
2022-11-30T12:04:20.373Z,991.02
2022-11-30T12:05:19.979Z,991.02
2022-11-30T12:06:19.949Z,991.03
2022-11-30T12:07:20.112Z,991.04
2022-11-30T12:08:19.966Z,991.05
2022-11-30T12:09:19.922Z,991.06
2022-11-30T12:10:50.812Z,991.02
2022-11-30T12:11:20.890Z,990.97
2022-11-30T12:12:21.694Z,990.98
2022-11-30T12:13:20.305Z,990.96
2022-11-30T12:14:19.857Z,990.93
2022-11-30T12:15:19.838Z,990.99
2022-11-30T12:16:19.978Z,990.94
2022-11-30T12:17:19.878Z,990.96
2022-11-30T12:18:24.033Z,990.89
2022-11-30T12:19:19.827Z,990.91
2022-11-30T12:20:19.810Z,990.90
2022-11-30T12:21:24.635Z,990.84
2022-11-30T12:22:19.786Z,990.88
2022-11-30T12:23:39.952Z,990.85
2022-11-30T12:24:19.746Z,990.86
2022-11-30T12:25:19.732Z,990.82
2022-11-30T12:26:19.724Z,990.86
2022-11-30T12:27:19.792Z,990.92
2022-11-30T12:28:19.742Z,990.85
2022-11-30T12:29:19.693Z,990.87